createdAt,value
2022-10-05T03:31:45.887Z,11.23
2022-10-05T03:32:46.825Z,11.50
2022-10-05T03:33:46.838Z,11.70
2022-10-05T03:34:46.817Z,11.77
2022-10-05T03:35:46.814Z,11.81
2022-10-05T03:36:47.192Z,11.83
2022-10-05T03:37:46.789Z,11.81
2022-10-05T03:38:46.783Z,11.84
2022-10-05T03:39:46.775Z,11.86
2022-10-05T03:40:46.748Z,11.84
2022-10-05T03:41:46.745Z,11.84
2022-10-05T03:42:46.928Z,11.80
2022-10-05T03:43:46.723Z,11.80
2022-10-05T03:44:46.726Z,11.90
2022-10-05T03:45:46.774Z,11.95
2022-10-05T03:46:47.003Z,11.94
2022-10-05T03:47:46.680Z,11.94
2022-10-05T03:48:46.691Z,12.00
2022-10-05T03:49:46.778Z,12.00
2022-10-05T03:50:46.638Z,12.03
2022-10-05T03:51:46.654Z,12.03
2022-10-05T03:52:46.613Z,12.00
2022-10-05T03:53:46.618Z,11.95
2022-10-05T03:54:46.620Z,11.90
2022-10-05T03:55:46.600Z,11.87
2022-10-05T03:56:46.910Z,11.81
2022-10-05T03:57:46.627Z,11.73
2022-10-05T03:58:46.550Z,11.68
2022-10-05T03:59:46.590Z,11.69
2022-10-05T04:00:46.527Z,11.69
2022-10-05T04:01:46.550Z,11.77
2022-10-05T04:02:46.592Z,11.78
2022-10-05T04:03:46.526Z,11.73
2022-10-05T04:04:46.485Z,11.69
2022-10-05T04:05:46.509Z,11.63
2022-10-05T04:06:46.799Z,11.57
2022-10-05T04:07:46.517Z,11.52
2022-10-05T04:08:48.013Z,11.51
2022-10-05T04:09:46.450Z,11.54
2022-10-05T04:10:46.454Z,11.51
2022-10-05T04:11:46.422Z,11.50
2022-10-05T04:12:46.414Z,11.47
2022-10-05T04:13:46.410Z,11.44
2022-10-05T04:14:46.378Z,11.40
2022-10-05T04:15:46.439Z,11.36
2022-10-05T04:16:46.745Z,11.33
2022-10-05T04:17:46.358Z,11.32
2022-10-05T04:18:46.343Z,11.32
2022-10-05T04:19:46.339Z,11.35
2022-10-05T04:20:46.320Z,11.35
2022-10-05T04:21:46.346Z,11.47
2022-10-05T04:22:46.324Z,11.52
2022-10-05T04:23:46.295Z,11.52
2022-10-05T04:24:46.276Z,11.54
2022-10-05T04:25:46.288Z,11.52
2022-10-05T04:26:46.672Z,11.55
2022-10-05T04:27:46.294Z,11.60
2022-10-05T04:28:46.455Z,11.59
2022-10-05T04:29:46.230Z,11.57
2022-10-05T04:30:46.202Z,11.55
2022-10-05T04:31:46.320Z,11.55
2022-10-05T04:32:46.239Z,11.62
2022-10-05T04:33:46.206Z,11.62
2022-10-05T04:34:46.163Z,11.63
2022-10-05T04:35:46.174Z,11.68
2022-10-05T04:36:46.474Z,11.78
2022-10-05T04:37:46.727Z,11.81
2022-10-05T04:38:46.159Z,11.80
2022-10-05T04:39:46.130Z,11.78
2022-10-05T04:40:46.104Z,11.80
2022-10-05T04:41:46.135Z,11.80
2022-10-05T04:42:46.091Z,11.78
2022-10-05T04:43:46.132Z,11.77
2022-10-05T04:44:46.061Z,11.78
2022-10-05T04:45:46.079Z,11.80
2022-10-05T04:46:46.406Z,11.83
2022-10-05T04:47:46.070Z,11.81
2022-10-05T04:48:46.019Z,11.78
2022-10-05T04:49:46.041Z,11.73
2022-10-05T04:50:46.012Z,11.73
2022-10-05T04:51:50.920Z,11.69
2022-10-05T04:52:45.991Z,11.65
2022-10-05T04:53:45.982Z,11.59
2022-10-05T04:54:45.978Z,11.60
2022-10-05T04:55:45.956Z,11.57
2022-10-05T04:56:46.191Z,11.52
2022-10-05T04:57:45.983Z,11.48
2022-10-05T04:58:45.917Z,11.48
2022-10-05T04:59:45.905Z,11.50
2022-10-05T05:00:45.957Z,11.47
2022-10-05T05:01:45.885Z,11.43
2022-10-05T05:02:45.860Z,11.41
2022-10-05T05:03:45.965Z,11.36
2022-10-05T05:04:50.830Z,11.35
2022-10-05T05:06:12.198Z,11.35
2022-10-05T05:06:46.098Z,11.37
2022-10-05T05:07:45.838Z,11.44
2022-10-05T05:08:45.796Z,11.43
2022-10-05T05:09:45.804Z,11.45
2022-10-05T05:10:45.774Z,11.43
2022-10-05T05:11:45.836Z,11.41
2022-10-05T05:12:45.754Z,11.43
2022-10-05T05:13:45.758Z,11.37
2022-10-05T05:14:45.732Z,11.32
2022-10-05T05:15:45.755Z,11.35
2022-10-05T05:16:46.097Z,11.27
2022-10-05T05:17:45.715Z,11.26
2022-10-05T05:18:45.691Z,11.23
2022-10-05T05:19:45.691Z,11.26
2022-10-05T05:20:45.671Z,11.26
2022-10-05T05:21:45.670Z,11.25
2022-10-05T05:22:45.899Z,11.27
2022-10-05T05:23:45.648Z,11.29
2022-10-05T05:24:45.623Z,11.35
2022-10-05T05:25:45.627Z,11.35
2022-10-05T05:26:45.688Z,11.36
2022-10-05T05:27:45.632Z,11.33
2022-10-05T05:28:45.588Z,11.33
2022-10-05T05:29:45.582Z,11.30
2022-10-05T05:30:45.564Z,11.32
2022-10-05T05:31:45.695Z,11.35
2022-10-05T05:32:45.544Z,11.37
2022-10-05T05:33:45.712Z,11.37
2022-10-05T05:34:45.530Z,11.44
2022-10-05T05:35:45.524Z,11.50
2022-10-05T05:36:45.763Z,11.51
2022-10-05T05:37:45.496Z,11.52
2022-10-05T05:38:45.472Z,11.54
2022-10-05T05:39:45.498Z,11.51
2022-10-05T05:40:45.456Z,11.54
2022-10-05T05:41:45.455Z,11.51
2022-10-05T05:42:45.434Z,11.57
2022-10-05T05:43:45.433Z,11.55
2022-10-05T05:44:45.456Z,11.55
2022-10-05T05:45:45.414Z,11.54
2022-10-05T05:47:02.992Z,11.55
2022-10-05T05:47:45.468Z,11.52
2022-10-05T05:48:45.372Z,11.50
2022-10-05T05:49:45.374Z,11.47
2022-10-05T05:50:45.392Z,11.44
2022-10-05T05:51:45.346Z,11.40
2022-10-05T05:52:45.321Z,11.37
2022-10-05T05:53:45.327Z,11.37
2022-10-05T05:54:45.303Z,11.37
2022-10-05T05:55:45.329Z,11.41
2022-10-05T05:56:45.628Z,11.41
2022-10-05T05:57:45.283Z,11.37
2022-10-05T05:58:45.277Z,11.44
2022-10-05T05:59:45.259Z,11.41
2022-10-05T06:00:45.243Z,11.37
2022-10-05T06:01:45.343Z,11.41
2022-10-05T06:02:45.380Z,11.44
2022-10-05T06:03:45.219Z,11.44
2022-10-05T06:04:45.193Z,11.45
2022-10-05T06:05:45.222Z,11.47
2022-10-05T06:06:45.480Z,11.47
2022-10-05T06:07:45.192Z,11.44
2022-10-05T06:08:45.160Z,11.45
2022-10-05T06:09:45.153Z,11.44
2022-10-05T06:10:45.127Z,11.45
2022-10-05T06:11:45.131Z,11.45
2022-10-05T06:12:45.129Z,11.45
2022-10-05T06:13:45.112Z,11.45
2022-10-05T06:14:45.085Z,11.45
2022-10-05T06:15:45.088Z,11.48
2022-10-05T06:16:45.492Z,11.52
2022-10-05T06:17:45.091Z,11.57
2022-10-05T06:18:45.043Z,11.60
2022-10-05T06:19:45.048Z,11.63
2022-10-05T06:20:45.019Z,11.68
2022-10-05T06:21:45.024Z,11.70
2022-10-05T06:22:45.009Z,11.73
2022-10-05T06:23:45.035Z,11.78
2022-10-05T06:24:44.977Z,11.78
2022-10-05T06:25:44.981Z,11.81
2022-10-05T06:26:45.286Z,11.86
2022-10-05T06:27:44.960Z,11.88
2022-10-05T06:28:44.967Z,11.88
2022-10-05T06:29:44.934Z,11.90
2022-10-05T06:30:44.915Z,11.99
2022-10-05T06:31:44.971Z,12.00
2022-10-05T06:32:44.893Z,12.04
2022-10-05T06:33:44.897Z,12.04
2022-10-05T06:34:44.952Z,12.06
2022-10-05T06:35:44.877Z,12.07
2022-10-05T06:36:45.176Z,12.06
2022-10-05T06:37:44.857Z,12.10
2022-10-05T06:38:44.830Z,12.10
2022-10-05T06:39:44.857Z,12.15
2022-10-05T06:40:44.818Z,12.20
2022-10-05T06:41:44.795Z,12.25
2022-10-05T06:42:44.799Z,12.31
2022-10-05T06:43:44.779Z,12.35
2022-10-05T06:44:44.779Z,12.37
2022-10-05T06:45:44.804Z,12.36
2022-10-05T06:46:45.014Z,12.39
2022-10-05T06:47:44.730Z,12.39
2022-10-05T06:48:44.736Z,12.37
2022-10-05T06:49:44.708Z,12.40
2022-10-05T06:50:44.735Z,12.43
2022-10-05T06:51:44.692Z,12.45
2022-10-05T06:52:44.689Z,12.47
2022-10-05T06:53:44.665Z,12.47
2022-10-05T06:54:44.683Z,12.47
2022-10-05T06:55:44.648Z,12.49
2022-10-05T06:56:44.893Z,12.53
2022-10-05T06:57:44.625Z,12.55
2022-10-05T06:58:44.634Z,12.55
2022-10-05T06:59:44.600Z,12.55
2022-10-05T07:00:44.672Z,12.57
2022-10-05T07:01:44.864Z,12.58
2022-10-05T07:02:44.617Z,12.58
2022-10-05T07:03:44.559Z,12.60
2022-10-05T07:04:44.574Z,12.62
2022-10-05T07:05:44.538Z,12.64
2022-10-05T07:06:44.542Z,12.64
2022-10-05T07:07:44.519Z,12.67
2022-10-05T07:08:44.575Z,12.72
2022-10-05T07:09:44.494Z,12.73
2022-10-05T07:10:44.500Z,12.75
2022-10-05T07:11:44.983Z,12.76
2022-10-05T07:12:44.479Z,12.79
2022-10-05T07:13:44.452Z,12.79
2022-10-05T07:14:44.483Z,12.83
2022-10-05T07:15:44.431Z,12.86
2022-10-05T07:16:44.465Z,12.90
2022-10-05T07:17:44.556Z,12.91
2022-10-05T07:18:44.410Z,12.94
2022-10-05T07:19:44.413Z,12.98
2022-10-05T07:20:48.343Z,12.98
2022-10-05T07:21:44.660Z,13.01
2022-10-05T07:22:44.378Z,13.04
2022-10-05T07:23:44.346Z,13.05
2022-10-05T07:24:44.348Z,13.08
2022-10-05T07:25:44.355Z,13.11
2022-10-05T07:26:44.680Z,13.13
2022-10-05T07:27:47.124Z,13.16
2022-10-05T07:28:44.355Z,13.18
2022-10-05T07:29:44.276Z,13.18
2022-10-05T07:30:44.361Z,13.18
2022-10-05T07:31:44.277Z,13.18
2022-10-05T07:32:44.262Z,13.22
2022-10-05T07:33:44.243Z,13.23
2022-10-05T07:34:44.240Z,13.22
2022-10-05T07:35:44.212Z,13.30
2022-10-05T07:36:44.702Z,13.28
2022-10-05T07:37:44.200Z,13.33
2022-10-05T07:38:44.195Z,13.31
2022-10-05T07:39:59.565Z,13.33
2022-10-05T07:40:44.176Z,13.38
2022-10-05T07:41:44.151Z,13.41
2022-10-05T07:42:50.551Z,13.44
2022-10-05T07:44:44.144Z,13.46
2022-10-05T07:45:44.127Z,13.52
2022-10-05T07:46:44.646Z,13.52
2022-10-05T07:47:44.108Z,13.56
2022-10-05T07:48:44.084Z,13.60
2022-10-05T07:49:44.063Z,13.63
2022-10-05T07:50:44.066Z,13.70
2022-10-05T07:51:44.044Z,13.70
2022-10-05T07:52:44.041Z,13.71
2022-10-05T07:53:44.038Z,13.72
2022-10-05T07:54:44.027Z,13.72
2022-10-05T07:55:43.998Z,13.74
2022-10-05T07:56:44.505Z,13.74
2022-10-05T07:57:43.977Z,13.78
2022-10-05T07:58:44.005Z,13.79
2022-10-05T07:59:43.958Z,13.83
2022-10-05T08:00:43.961Z,13.86
2022-10-05T08:01:44.022Z,13.89
2022-10-05T08:02:44.010Z,13.89
2022-10-05T08:03:43.914Z,13.90
2022-10-05T08:04:43.936Z,13.95
2022-10-05T08:05:43.897Z,13.95
2022-10-05T08:06:44.363Z,13.97
2022-10-05T08:07:43.873Z,13.97
2022-10-05T08:08:43.879Z,13.96
2022-10-05T08:09:43.884Z,13.97
2022-10-05T08:10:43.848Z,14.03
2022-10-05T08:11:44.320Z,14.00
2022-10-05T08:12:43.829Z,14.03
2022-10-05T08:13:43.811Z,14.03
2022-10-05T08:14:43.805Z,14.12
2022-10-05T08:15:43.832Z,14.17
2022-10-05T08:16:43.783Z,14.20
2022-10-05T08:17:43.760Z,14.22
2022-10-05T08:18:43.766Z,14.23
2022-10-05T08:19:43.748Z,14.22
2022-10-05T08:20:43.749Z,14.25
2022-10-05T08:21:43.758Z,14.30
2022-10-05T08:22:43.720Z,14.33
2022-10-05T08:23:43.715Z,14.40
2022-10-05T08:24:43.700Z,14.40
2022-10-05T08:25:43.678Z,14.45
2022-10-05T08:26:43.677Z,14.45
2022-10-05T08:27:44.541Z,14.60
2022-10-05T08:28:43.658Z,14.68
2022-10-05T08:29:43.630Z,14.68
2022-10-05T08:30:43.714Z,14.69
2022-10-05T08:31:43.610Z,14.69
2022-10-05T08:32:43.615Z,14.77
2022-10-05T08:33:43.623Z,14.69
2022-10-05T08:34:43.596Z,14.70
2022-10-05T08:35:43.565Z,14.69
2022-10-05T08:36:43.570Z,14.68
2022-10-05T08:37:43.544Z,14.60
2022-10-05T08:38:43.549Z,14.63
2022-10-05T08:39:43.554Z,14.72
2022-10-05T08:40:43.535Z,14.66
2022-10-05T08:41:43.725Z,14.72
2022-10-05T08:42:43.514Z,14.79
2022-10-05T08:43:43.480Z,14.81
2022-10-05T08:44:43.483Z,14.79
2022-10-05T08:45:43.553Z,14.79
2022-10-05T08:46:43.463Z,14.78
2022-10-05T08:47:43.442Z,14.70
2022-10-05T08:48:43.439Z,14.79
2022-10-05T08:49:43.414Z,14.82
2022-10-05T08:50:43.430Z,14.79
2022-10-05T08:51:43.429Z,14.79
2022-10-05T08:52:43.398Z,14.79
2022-10-05T08:53:43.375Z,14.77
2022-10-05T08:54:43.394Z,14.82
2022-10-05T08:55:43.351Z,14.78
2022-10-05T08:56:43.378Z,14.77
2022-10-05T08:57:43.329Z,14.78
2022-10-05T08:58:43.333Z,14.81
2022-10-05T08:59:43.310Z,14.78
2022-10-05T09:00:43.310Z,14.78
2022-10-05T09:01:43.390Z,14.78
2022-10-05T09:02:43.371Z,14.77
2022-10-05T09:03:43.271Z,14.77
2022-10-05T09:04:43.270Z,14.77
2022-10-05T09:05:43.243Z,14.84
2022-10-05T09:06:43.249Z,14.89
2022-10-05T09:07:43.259Z,14.89
2022-10-05T09:08:43.228Z,14.88
2022-10-05T09:09:43.205Z,14.88
2022-10-05T09:10:43.219Z,14.91
2022-10-05T09:11:43.181Z,14.92
2022-10-05T09:12:43.179Z,14.94
2022-10-05T09:13:43.180Z,14.94
2022-10-05T09:14:43.162Z,14.97
2022-10-05T09:15:43.173Z,14.99
2022-10-05T09:16:43.137Z,15.03
2022-10-05T09:17:43.114Z,15.06
2022-10-05T09:18:43.141Z,15.09
2022-10-05T09:19:43.092Z,15.09
2022-10-05T09:20:43.095Z,15.11
2022-10-05T09:21:43.086Z,15.17
2022-10-05T09:22:43.087Z,15.18
2022-10-05T09:23:43.051Z,15.22
2022-10-05T09:24:48.241Z,15.24
2022-10-05T09:25:43.038Z,15.28
2022-10-05T09:26:43.038Z,15.27
2022-10-05T09:27:43.003Z,15.28
2022-10-05T09:28:43.078Z,15.25
2022-10-05T09:29:42.984Z,15.27
2022-10-05T09:30:43.121Z,15.33
2022-10-05T09:31:42.962Z,15.40
2022-10-05T09:32:42.966Z,15.40
2022-10-05T09:33:42.941Z,15.37
2022-10-05T09:34:42.992Z,15.42
2022-10-05T09:35:42.922Z,15.42
2022-10-05T09:36:42.948Z,15.43
2022-10-05T09:37:42.900Z,15.46
2022-10-05T09:38:42.908Z,15.44
2022-10-05T09:39:42.936Z,15.44
2022-10-05T09:40:42.881Z,15.51
2022-10-05T09:41:42.856Z,15.51
2022-10-05T09:42:42.882Z,15.52
2022-10-05T09:43:42.833Z,15.54
2022-10-05T09:44:42.834Z,15.59
2022-10-05T09:45:42.810Z,15.59
2022-10-05T09:46:42.897Z,15.64
2022-10-05T09:47:42.789Z,15.67
2022-10-05T09:48:42.837Z,15.72
2022-10-05T09:49:42.768Z,15.73
2022-10-05T09:50:42.769Z,15.73
2022-10-05T09:51:42.744Z,15.75
2022-10-05T09:52:42.748Z,15.73
2022-10-05T09:53:42.731Z,15.76
2022-10-05T09:54:42.761Z,15.79
2022-10-05T09:55:42.714Z,15.83
2022-10-05T09:56:42.706Z,15.88
2022-10-05T09:57:42.687Z,15.86
2022-10-05T09:58:42.687Z,15.90
2022-10-05T09:59:42.658Z,15.91
2022-10-05T10:00:47.063Z,15.95
2022-10-05T10:01:42.700Z,15.97
2022-10-05T10:02:42.755Z,15.97
2022-10-05T10:03:42.618Z,15.94
2022-10-05T10:04:42.618Z,16.00
2022-10-05T10:05:42.601Z,16.02
2022-10-05T10:06:42.625Z,16.12
2022-10-05T10:07:42.577Z,16.12
2022-10-05T10:08:42.581Z,16.12
2022-10-05T10:09:42.785Z,16.15
2022-10-05T10:10:42.559Z,16.17
2022-10-05T10:11:42.642Z,16.17
2022-10-05T10:12:42.573Z,16.21
2022-10-05T10:13:42.511Z,16.26
2022-10-05T10:14:42.508Z,16.33
2022-10-05T10:15:42.521Z,16.35
2022-10-05T10:16:42.499Z,16.38
2022-10-05T10:17:42.467Z,16.43
2022-10-05T10:18:42.503Z,16.49
2022-10-05T10:19:42.444Z,16.46
2022-10-05T10:20:42.451Z,16.50
2022-10-05T10:21:42.423Z,16.50
2022-10-05T10:22:43.338Z,16.51
2022-10-05T10:23:42.397Z,16.56
2022-10-05T10:24:42.441Z,16.57
2022-10-05T10:25:42.379Z,16.60
2022-10-05T10:26:42.381Z,16.61
2022-10-05T10:27:42.370Z,16.61
2022-10-05T10:28:42.362Z,16.64
2022-10-05T10:29:42.360Z,16.66
2022-10-05T10:30:42.421Z,16.69
2022-10-05T10:31:42.353Z,16.69
2022-10-05T10:32:42.324Z,16.72
2022-10-05T10:33:42.292Z,16.74
2022-10-05T10:34:42.296Z,16.76
2022-10-05T10:35:42.323Z,16.75
2022-10-05T10:36:42.277Z,16.78
2022-10-05T10:37:42.259Z,16.81
2022-10-05T10:38:42.252Z,16.75
2022-10-05T10:39:42.229Z,16.76
2022-10-05T10:40:42.277Z,16.79
2022-10-05T10:41:42.207Z,16.79
2022-10-05T10:42:42.210Z,16.81
2022-10-05T10:43:42.228Z,16.79
2022-10-05T10:44:42.187Z,16.78
2022-10-05T10:45:42.161Z,16.81
2022-10-05T10:46:42.287Z,16.89
2022-10-05T10:47:42.141Z,16.87
2022-10-05T10:48:42.146Z,16.84
2022-10-05T10:49:42.116Z,16.81
2022-10-05T10:50:42.122Z,16.81
2022-10-05T10:51:42.101Z,16.86
2022-10-05T10:52:42.145Z,16.87
2022-10-05T10:53:42.074Z,16.90
2022-10-05T10:54:42.083Z,16.94
2022-10-05T10:55:42.057Z,16.91
2022-10-05T10:56:42.040Z,16.91
2022-10-05T10:57:42.044Z,16.94
2022-10-05T10:58:42.058Z,16.90
2022-10-05T10:59:42.024Z,16.84
2022-10-05T11:00:42.006Z,16.83
2022-10-05T11:01:42.089Z,16.83
2022-10-05T11:02:42.022Z,16.84
2022-10-05T11:03:41.981Z,16.83
2022-10-05T11:04:41.981Z,16.75
2022-10-05T11:05:46.362Z,16.74
2022-10-05T11:06:41.941Z,16.79
2022-10-05T11:07:41.937Z,16.79
2022-10-05T11:08:41.926Z,16.76
2022-10-05T11:09:41.915Z,16.75
2022-10-05T11:10:41.917Z,16.75
2022-10-05T11:11:41.893Z,16.78
2022-10-05T11:12:41.873Z,16.74
2022-10-05T11:13:41.871Z,16.69
2022-10-05T11:14:41.849Z,16.72
2022-10-05T11:15:41.987Z,16.79
2022-10-05T11:16:41.876Z,16.79
2022-10-05T11:17:41.831Z,16.78
2022-10-05T11:18:41.808Z,16.76
2022-10-05T11:20:02.532Z,16.79
2022-10-05T11:20:41.802Z,16.81
2022-10-05T11:21:41.786Z,16.86
2022-10-05T11:22:41.795Z,16.89
2022-10-05T11:23:41.765Z,16.96
2022-10-05T11:24:41.738Z,16.96
2022-10-05T11:25:41.741Z,16.96
2022-10-05T11:26:41.717Z,16.94
2022-10-05T11:27:41.721Z,16.93
2022-10-05T11:28:41.854Z,17.01
2022-10-05T11:29:41.708Z,17.06
2022-10-05T11:30:41.682Z,17.04
2022-10-05T11:31:41.781Z,17.02
2022-10-05T11:32:41.660Z,17.02
2022-10-05T11:33:41.656Z,17.09
2022-10-05T11:34:41.665Z,17.09
2022-10-05T11:35:41.649Z,17.06
2022-10-05T11:36:41.617Z,17.09
2022-10-05T11:37:41.614Z,17.12
2022-10-05T11:38:41.598Z,17.19
2022-10-05T11:39:41.587Z,17.27
2022-10-05T11:40:41.601Z,17.30
2022-10-05T11:41:41.567Z,17.33
2022-10-05T11:42:41.545Z,17.38
2022-10-05T11:43:41.550Z,17.49
2022-10-05T11:44:41.523Z,17.49
2022-10-05T11:45:41.527Z,17.65
2022-10-05T11:46:41.594Z,17.65
2022-10-05T11:47:41.508Z,17.87
2022-10-05T11:48:41.480Z,18.18
2022-10-05T11:49:41.491Z,18.15
2022-10-05T11:50:41.461Z,17.95
2022-10-05T11:51:41.464Z,17.90
2022-10-05T11:52:41.460Z,18.04
2022-10-05T11:53:41.439Z,17.92
2022-10-05T11:55:05.942Z,17.94
2022-10-05T11:55:41.423Z,18.16
2022-10-05T11:56:41.402Z,18.23
2022-10-05T11:57:41.413Z,18.35
2022-10-05T11:58:41.402Z,18.45
2022-10-05T11:59:41.373Z,18.60
2022-10-05T12:00:41.353Z,18.53
2022-10-05T12:01:41.359Z,18.56
2022-10-05T12:02:42.937Z,18.56
2022-10-05T12:03:41.452Z,18.65
2022-10-05T12:04:41.335Z,18.77
2022-10-05T12:05:41.310Z,18.74
2022-10-05T12:06:41.291Z,18.88
2022-10-05T12:07:41.291Z,18.89
2022-10-05T12:08:41.269Z,18.96
2022-10-05T12:09:41.276Z,19.16
2022-10-05T12:10:41.273Z,19.22
2022-10-05T12:11:41.246Z,19.47
2022-10-05T12:12:41.227Z,19.29
2022-10-05T12:13:41.225Z,19.26
2022-10-05T12:14:41.207Z,19.37
2022-10-05T12:15:41.273Z,19.26
2022-10-05T12:16:41.198Z,19.24
2022-10-05T12:17:41.192Z,19.19
2022-10-05T12:18:41.156Z,19.09
2022-10-05T12:19:41.165Z,19.16
2022-10-05T12:20:41.140Z,19.07
2022-10-05T12:21:41.141Z,19.26
2022-10-05T12:22:41.150Z,19.31
2022-10-05T12:23:41.121Z,19.47
2022-10-05T12:24:41.087Z,19.45
2022-10-05T12:25:41.101Z,19.47
2022-10-05T12:26:41.073Z,19.22
2022-10-05T12:27:41.076Z,19.37
2022-10-05T12:28:41.080Z,19.52
2022-10-05T12:29:41.055Z,19.49
2022-10-05T12:30:41.026Z,19.59
2022-10-05T12:31:41.096Z,19.82
2022-10-05T12:32:41.007Z,20.06
2022-10-05T12:33:41.029Z,20.22
2022-10-05T12:34:41.019Z,20.25
2022-10-05T12:35:48.283Z,20.04
2022-10-05T12:37:03.173Z,20.22
2022-10-05T12:37:40.975Z,20.16
2022-10-05T12:38:40.937Z,19.95
2022-10-05T12:39:40.943Z,19.76
2022-10-05T12:40:40.946Z,19.54
2022-10-05T12:41:40.918Z,19.70
2022-10-05T12:42:41.972Z,19.81
2022-10-05T12:43:40.909Z,19.85
2022-10-05T12:44:40.873Z,20.06
2022-10-05T12:45:40.932Z,20.10
2022-10-05T12:46:40.876Z,20.06
2022-10-05T12:47:40.858Z,19.73
2022-10-05T12:48:40.831Z,19.76
2022-10-05T12:49:40.831Z,19.94
2022-10-05T12:50:40.814Z,20.32
2022-10-05T12:51:40.811Z,20.31
2022-10-05T12:52:40.812Z,20.24
2022-10-05T12:53:40.794Z,20.60
2022-10-05T12:54:40.783Z,20.84
2022-10-05T12:55:40.789Z,20.75
2022-10-05T12:56:40.749Z,20.72
2022-10-05T12:57:40.745Z,20.60
2022-10-05T12:58:40.763Z,20.67
2022-10-05T12:59:40.757Z,20.62
2022-10-05T13:00:40.739Z,20.78
2022-10-05T13:01:40.743Z,20.62
2022-10-05T13:02:40.680Z,20.52
2022-10-05T13:03:40.680Z,20.52
2022-10-05T13:04:40.696Z,20.34
2022-10-05T13:05:40.703Z,20.21
2022-10-05T13:06:40.632Z,20.22
2022-10-05T13:07:40.648Z,20.39
2022-10-05T13:08:40.624Z,20.60
2022-10-05T13:09:40.617Z,20.82
2022-10-05T13:10:40.622Z,20.72
2022-10-05T13:11:40.613Z,20.52
2022-10-05T13:12:40.570Z,20.40
2022-10-05T13:13:40.572Z,20.62
2022-10-05T13:14:40.552Z,20.74
2022-10-05T13:15:40.550Z,20.80
2022-10-05T13:16:40.650Z,20.55
2022-10-05T13:17:40.544Z,20.52
2022-10-05T13:18:40.504Z,20.56
2022-10-05T13:19:40.507Z,20.69
2022-10-05T13:20:40.486Z,20.65
2022-10-05T13:21:40.858Z,20.58
2022-10-05T13:22:40.503Z,20.63
2022-10-05T13:23:40.459Z,20.69
2022-10-05T13:24:40.454Z,20.62
2022-10-05T13:25:40.441Z,20.56
2022-10-05T13:26:40.412Z,20.58
2022-10-05T13:27:40.424Z,20.59
2022-10-05T13:28:40.419Z,20.67
2022-10-05T13:29:40.405Z,20.63
2022-10-05T13:30:40.373Z,20.59
2022-10-05T13:31:40.399Z,20.67
2022-10-05T13:32:40.351Z,20.60
2022-10-05T13:33:40.353Z,20.59
2022-10-05T13:34:40.363Z,20.65
2022-10-05T13:35:40.333Z,20.62
2022-10-05T13:36:40.303Z,20.60
2022-10-05T13:37:40.316Z,20.60
2022-10-05T13:38:40.285Z,20.51
2022-10-05T13:39:40.290Z,20.56
2022-10-05T13:40:40.298Z,20.65
2022-10-05T13:41:40.268Z,20.67
2022-10-05T13:42:40.244Z,20.67
2022-10-05T13:43:40.260Z,20.80
2022-10-05T13:44:40.229Z,20.80
2022-10-05T13:45:40.311Z,20.85
2022-10-05T13:46:40.239Z,20.81
2022-10-05T13:47:40.197Z,20.84
2022-10-05T13:48:40.212Z,20.81
2022-10-05T13:49:40.221Z,20.77
2022-10-05T13:50:40.153Z,20.69
2022-10-05T13:51:40.152Z,20.74
2022-10-05T13:52:40.307Z,20.74
2022-10-05T13:53:40.132Z,20.70
2022-10-05T13:54:40.106Z,20.70
2022-10-05T13:55:40.374Z,20.78
2022-10-05T13:56:40.123Z,20.70
2022-10-05T13:57:40.087Z,20.67
2022-10-05T13:58:40.104Z,20.66
2022-10-05T13:59:40.068Z,20.78
2022-10-05T14:00:40.041Z,20.77
2022-10-05T14:01:40.045Z,20.70
2022-10-05T14:02:40.028Z,20.65
2022-10-05T14:03:40.030Z,20.65
2022-10-05T14:04:40.032Z,20.62
2022-10-05T14:05:40.003Z,20.67
2022-10-05T14:06:39.983Z,20.65
2022-10-05T14:07:39.981Z,20.67
2022-10-05T14:08:39.956Z,20.77
2022-10-05T14:09:39.964Z,20.70
2022-10-05T14:10:39.988Z,20.66
2022-10-05T14:11:39.934Z,20.65
2022-10-05T14:12:39.912Z,20.74
2022-10-05T14:13:39.920Z,20.85
2022-10-05T14:14:39.886Z,20.88
2022-10-05T14:15:42.298Z,20.88
2022-10-05T14:16:39.959Z,20.80
2022-10-05T14:17:39.869Z,20.80
2022-10-05T14:18:39.843Z,20.82
2022-10-05T14:19:39.848Z,20.84
2022-10-05T14:20:39.836Z,20.81
2022-10-05T14:21:39.823Z,20.70
2022-10-05T14:22:39.857Z,20.65
2022-10-05T14:23:39.802Z,20.77
2022-10-05T14:24:43.974Z,20.82
2022-10-05T14:25:39.788Z,20.69
2022-10-05T14:26:39.757Z,20.66
2022-10-05T14:27:39.765Z,20.65
2022-10-05T14:28:39.793Z,20.62
2022-10-05T14:29:39.734Z,20.59
2022-10-05T14:30:39.711Z,20.74
2022-10-05T14:31:39.757Z,20.75
2022-10-05T14:32:39.690Z,20.78
2022-10-05T14:33:39.694Z,20.77
2022-10-05T14:34:39.804Z,20.85
2022-10-05T14:35:39.673Z,20.95
2022-10-05T14:36:39.644Z,21.00
2022-10-05T14:37:39.648Z,21.03
2022-10-05T14:38:39.651Z,21.05
2022-10-05T14:39:39.628Z,21.05
2022-10-05T14:40:39.639Z,20.95
2022-10-05T14:41:39.621Z,21.05
2022-10-05T14:42:42.653Z,21.06
2022-10-05T14:43:39.589Z,21.02
2022-10-05T14:44:39.559Z,21.09
2022-10-05T14:45:39.611Z,20.88
2022-10-05T14:46:39.613Z,20.78
2022-10-05T14:47:39.537Z,20.92
2022-10-05T14:48:39.515Z,21.11
2022-10-05T14:49:39.517Z,21.11
2022-10-05T14:50:39.493Z,20.85
2022-10-05T14:51:39.531Z,20.87
2022-10-05T14:52:39.468Z,20.96
2022-10-05T14:53:39.472Z,21.00
2022-10-05T14:54:39.449Z,21.03
2022-10-05T14:55:39.450Z,21.00
2022-10-05T14:56:39.426Z,21.05
2022-10-05T14:57:39.462Z,21.00
2022-10-05T14:58:39.403Z,20.90
2022-10-05T14:59:39.406Z,20.81
2022-10-05T15:00:39.432Z,20.81
2022-10-05T15:01:39.807Z,20.87
2022-10-05T15:02:39.404Z,20.75
2022-10-05T15:03:39.408Z,20.75
2022-10-05T15:04:39.338Z,20.66
2022-10-05T15:05:39.345Z,20.72
2022-10-05T15:06:39.315Z,20.65
2022-10-05T15:07:39.320Z,20.80
2022-10-05T15:08:39.296Z,20.82
2022-10-05T15:09:39.329Z,20.90
2022-10-05T15:10:39.273Z,20.93
2022-10-05T15:11:39.274Z,20.93
2022-10-05T15:12:39.265Z,20.90
2022-10-05T15:13:39.240Z,22.85
2022-10-05T15:14:39.265Z,24.80
2022-10-05T15:15:39.254Z,23.96
2022-10-05T15:16:39.279Z,22.80
2022-10-05T15:17:39.218Z,22.28
2022-10-05T15:18:39.204Z,21.92
2022-10-05T15:19:39.191Z,21.54
2022-10-05T15:20:39.193Z,21.32
2022-10-05T15:21:39.196Z,21.14
2022-10-05T15:22:39.160Z,20.96
2022-10-05T15:23:39.130Z,20.84
2022-10-05T15:24:43.494Z,20.74
2022-10-05T15:25:39.107Z,20.59
2022-10-05T15:26:39.112Z,20.39
2022-10-05T15:27:39.112Z,20.44
2022-10-05T15:28:39.156Z,20.41
2022-10-05T15:29:39.067Z,20.43
2022-10-05T15:30:39.108Z,20.48
2022-10-05T15:31:39.046Z,20.58
2022-10-05T15:32:39.052Z,20.62
2022-10-05T15:33:39.046Z,20.63
2022-10-05T15:34:39.021Z,20.50
2022-10-05T15:35:39.006Z,20.55
2022-10-05T15:36:38.999Z,20.60
2022-10-05T15:37:38.975Z,20.52
2022-10-05T15:38:38.976Z,20.48
2022-10-05T15:39:38.989Z,20.39
2022-10-05T15:40:38.959Z,20.41
2022-10-05T15:41:38.936Z,20.32
2022-10-05T15:42:38.934Z,20.14
2022-10-05T15:43:38.914Z,20.04
2022-10-05T15:44:38.916Z,19.94
2022-10-05T15:45:38.945Z,19.94
2022-10-05T15:46:38.888Z,19.96
2022-10-05T15:47:38.872Z,19.94
2022-10-05T15:48:38.871Z,19.92
2022-10-05T15:49:38.846Z,19.86
2022-10-05T15:50:38.847Z,19.81
2022-10-05T15:51:38.862Z,19.89
2022-10-05T15:52:38.828Z,19.86
2022-10-05T15:53:38.813Z,19.82
2022-10-05T15:54:38.834Z,19.73
2022-10-05T15:55:38.776Z,19.66
2022-10-05T15:56:38.790Z,19.67
2022-10-05T15:57:38.779Z,19.81
2022-10-05T15:58:38.774Z,19.86
2022-10-05T15:59:38.737Z,19.85
2022-10-05T16:00:38.738Z,19.89
2022-10-05T16:01:38.733Z,19.85
2022-10-05T16:02:38.764Z,19.74
2022-10-05T16:03:38.730Z,19.79
2022-10-05T16:04:38.697Z,19.76
2022-10-05T16:05:38.669Z,19.79
2022-10-05T16:06:38.672Z,19.73
2022-10-05T16:07:38.648Z,19.63
2022-10-05T16:08:38.651Z,19.54
2022-10-05T16:09:38.655Z,19.47
2022-10-05T16:10:38.625Z,19.40
2022-10-05T16:11:38.606Z,19.51
2022-10-05T16:12:38.604Z,19.45
2022-10-05T16:13:38.581Z,19.40
2022-10-05T16:14:38.582Z,19.37
2022-10-05T16:15:38.582Z,19.30
2022-10-05T16:16:38.636Z,19.24
2022-10-05T16:17:38.534Z,19.22
2022-10-05T16:18:38.538Z,19.21
2022-10-05T16:19:38.513Z,19.16
2022-10-05T16:20:38.517Z,19.12
2022-10-05T16:21:38.526Z,19.09
2022-10-05T16:22:42.544Z,19.04
2022-10-05T16:23:38.476Z,19.08
2022-10-05T16:24:38.471Z,19.11